Time;durP1;ratioP1;P1;durP2;ratioP2;P2;SDS_P1;SDS_P2;PMS_P1;PMS_P2;Temp;Humidity;BMP_temperature;BMP_pressure;BME280_temperature;BME280_humidity;BME280_pressure;Samples;Min_cycle;Max_cycle;Signal;HPM_P1;HPM_P2
2022/08/26 00:00:54;;;;;;;;;7.50;6.75;;;;;24.72;48.05;98896.69;5074821;28;45355;-72
2022/08/26 00:03:21;;;;;;;;;5.00;5.00;;;;;24.74;47.78;98893.84;5073797;28;45472;-73
2022/08/26 00:05:47;;;;;;;;;5.25;5.25;;;;;24.73;47.06;98887.59;5073861;28;45483;-74
2022/08/26 00:08:14;;;;;;;;;5.40;5.40;;;;;24.77;46.58;98885.44;5073967;28;46491;-72
2022/08/26 00:10:41;;;;;;;;;5.00;5.00;;;;;24.86;46.08;98897.97;5074262;28;45364;-72
2022/08/26 00:13:08;;;;;;;;;6.50;6.00;;;;;25.00;44.39;98894.72;5073884;28;45417;-73
2022/08/26 00:15:33;;;;;;;;;5.25;5.25;;;;;25.22;44.29;98894.19;5074359;28;45218;-73
2022/08/26 00:17:59;;;;;;;;;5.50;5.50;;;;;25.41;43.55;98897.69;5073950;28;46420;-73
2022/08/26 00:20:28;;;;;;;;;6.75;6.25;;;;;25.56;43.59;98890.66;5074091;28;45340;-73
2022/08/26 00:22:54;;;;;;;;;5.80;5.20;;;;;25.67;42.52;98904.75;5073073;28;45413;-73
2022/08/26 00:25:20;;;;;;;;;5.75;5.25;;;;;25.87;42.49;98891.81;5073387;28;45551;-73
2022/08/26 00:27:46;;;;;;;;;5.80;5.80;;;;;25.98;41.75;98885.25;5072644;28;45570;-72
2022/08/26 00:30:17;;;;;;;;;5.20;5.20;;;;;26.09;41.74;98893.06;5073924;28;45399;-73
2022/08/26 00:32:42;;;;;;;;;6.00;6.00;;;;;26.16;41.76;98883.28;5072979;28;45439;-72
2022/08/26 00:35:09;;;;;;;;;6.50;6.50;;;;;26.22;42.54;98887.19;5073658;28;45422;-71
2022/08/26 00:37:34;;;;;;;;;8.25;6.25;;;;;26.23;41.88;98887.00;5014891;28;1680150;-73
2022/08/26 00:40:00;;;;;;;;;6.00;6.00;;;;;26.22;41.86;98893.44;5074708;28;45361;-73
2022/08/26 00:42:26;;;;;;;;;6.75;6.00;;;;;26.18;42.24;98897.47;5075348;28;45451;-72
2022/08/26 00:44:52;;;;;;;;;5.50;5.50;;;;;26.19;42.42;98895.59;5074355;28;45495;-72
2022/08/26 00:47:30;;;;;;;;;5.50;5.25;;;;;26.14;42.59;98903.38;5065058;28;45475;-72
2022/08/26 00:50:01;;;;;;;;;5.80;5.80;;;;;26.09;42.98;98882.25;5073556;28;45508;-72
2022/08/26 00:52:27;;;;;;;;;8.00;6.40;;;;;26.06;43.12;98896.09;5075243;28;45326;-72
2022/08/26 00:55:05;;;;;;;;;7.00;6.50;;;;;26.02;43.44;98897.44;5073586;28;45378;-72
2022/08/26 00:57:33;;;;;;;;;3.00;3.00;;;;;25.99;43.46;98892.34;5075280;28;46684;-72
2022/08/26 01:00:02;;;;;;;;;7.20;5.60;;;;;25.93;44.74;98880.38;5074090;28;45575;-72
2022/08/26 01:02:28;;;;;;;;;5.60;5.60;;;;;25.76;46.00;98896.69;5075097;28;45393;-72
2022/08/26 01:04:57;;;;;;;;;5.00;5.00;;;;;25.54;45.40;98889.97;5074086;28;45207;-73
2022/08/26 01:07:26;;;;;;;;;5.80;5.80;;;;;25.31;45.85;98892.38;5074699;28;46584;-72
2022/08/26 01:09:52;;;;;;;;;6.80;6.80;;;;;25.16;46.75;98886.72;5074578;28;45367;-72
2022/08/26 01:12:17;;;;;;;;;5.75;5.75;;;;;25.05;47.05;98884.31;5074978;28;45346;-72
2022/08/26 01:14:44;;;;;;;;;7.50;6.75;;;;;25.05;46.42;98919.38;5074635;28;45333;-71
2022/08/26 01:17:10;;;;;;;;;5.60;5.60;;;;;25.11;46.94;98901.72;5074837;28;46234;-72
2022/08/26 01:19:49;;;;;;;;;5.25;4.75;;;;;25.20;46.22;98896.22;5048178;28;45411;-71
2022/08/26 01:22:42;;;;;;;;;6.25;6.00;;;;;25.27;46.32;98893.72;5074094;28;45436;-71
2022/08/26 01:25:08;;;;;;;;;7.00;6.00;;;;;25.33;46.15;98910.09;5039182;28;46291;-72
2022/08/26 01:27:34;;;;;;;;;7.50;6.75;;;;;25.40;46.44;98888.72;5074584;28;46240;-73
2022/08/26 01:30:01;;;;;;;;;5.80;5.80;;;;;25.45;46.36;98893.66;5074380;28;45447;-72
2022/08/26 01:32:27;;;;;;;;;5.80;5.80;;;;;25.46;46.51;98892.66;5074765;28;45375;-71
2022/08/26 01:34:53;;;;;;;;;8.20;6.40;;;;;25.53;46.18;98909.88;5074360;28;45417;-70
2022/08/26 01:37:25;;;;;;;;;6.00;6.00;;;;;25.60;46.38;98903.69;5074120;28;46277;-71
2022/08/26 01:39:53;;;;;;;;;6.20;6.20;;;;;25.66;46.26;98900.34;5073741;28;45519;-70
2022/08/26 01:42:21;;;;;;;;;7.20;6.60;;;;;25.71;45.76;98889.06;5055802;28;45300;-70
2022/08/26 01:44:52;;;;;;;;;6.75;6.00;;;;;25.75;45.86;98895.00;5073643;28;45531;-72
2022/08/26 01:47:20;;;;;;;;;6.40;5.40;;;;;25.76;46.11;98897.53;5074347;28;45634;-72
2022/08/26 01:49:48;;;;;;;;;3.80;3.80;;;;;25.81;45.70;98902.41;5073742;28;45462;-72
2022/08/26 01:52:21;;;;;;;;;7.60;6.60;;;;;25.83;45.47;98917.47;5074134;28;45420;-71
2022/08/26 01:54:47;;;;;;;;;7.00;5.50;;;;;25.83;45.79;98886.91;5073815;28;45772;-69
2022/08/26 01:57:14;;;;;;;;;6.25;5.25;;;;;25.85;45.54;98898.41;5070393;28;45608;-69
2022/08/26 01:59:39;;;;;;;;;5.00;5.00;;;;;25.82;45.58;98893.31;5071329;28;45605;-69
2022/08/26 02:02:05;;;;;;;;;7.00;6.75;;;;;25.77;45.79;98893.81;5055895;28;45418;-69
2022/08/26 02:04:39;;;;;;;;;7.00;7.00;;;;;25.72;46.21;98899.72;5071544;28;45505;-69
2022/08/26 02:07:08;;;;;;;;;5.40;5.40;;;;;25.67;46.17;98909.28;5073809;28;45439;-69
2022/08/26 02:09:37;;;;;;;;;6.80;6.40;;;;;25.60;46.32;98900.13;5074002;28;45352;-69
2022/08/26 02:12:04;;;;;;;;;5.00;5.00;;;;;25.54;46.35;98908.88;5074351;28;45354;-69
2022/08/26 02:14:36;;;;;;;;;5.25;5.25;;;;;25.51;46.50;98899.22;5073766;28;45372;-71
2022/08/26 02:17:03;;;;;;;;;6.40;6.40;;;;;25.52;46.29;98900.09;5073855;28;45710;-72
2022/08/26 02:19:32;;;;;;;;;9.40;6.00;;;;;25.50;46.57;98896.69;5072897;28;45500;-72
2022/08/26 02:22:05;;;;;;;;;8.00;7.25;;;;;25.48;46.42;98918.44;5073712;28;45374;-71
2022/08/26 02:24:48;;;;;;;;;5.25;5.00;;;;;25.48;46.62;98928.41;5073566;28;45441;-71
2022/08/26 02:27:15;;;;;;;;;5.80;5.80;;;;;25.48;46.66;98902.25;5073929;28;47129;-67
2022/08/26 02:29:45;;;;;;;;;6.20;5.40;;;;;25.46;46.95;98917.78;5072961;28;45530;-68
2022/08/26 02:32:11;;;;;;;;;2.75;2.75;;;;;25.46;46.79;98907.00;5073798;28;45495;-68
2022/08/26 02:34:36;;;;;;;;;6.00;5.75;;;;;25.44;47.20;98918.94;5073527;28;45434;-68
2022/08/26 02:37:07;;;;;;;;;7.25;7.25;;;;;25.40;47.40;98904.94;5075761;28;46433;-68
2022/08/26 02:39:35;;;;;;;;;6.40;6.40;;;;;25.37;47.43;98899.84;5076573;28;45382;-68
2022/08/26 02:42:02;;;;;;;;;6.00;6.00;;;;;25.35;48.27;98912.66;5077372;28;45520;-67
2022/08/26 02:44:27;;;;;;;;;6.25;5.00;;;;;25.31;48.37;98932.84;5076589;28;45405;-67
2022/08/26 02:46:54;;;;;;;;;6.50;6.25;;;;;25.27;48.29;98915.31;5076566;28;46211;-68
2022/08/26 02:49:21;;;;;;;;;6.40;6.40;;;;;25.22;48.33;98906.84;5076713;28;45422;-67
2022/08/26 02:51:48;;;;;;;;;8.75;8.00;;;;;25.16;48.88;98902.91;5076448;28;45464;-67
2022/08/26 02:54:14;;;;;;;;;7.75;7.25;;;;;25.11;49.76;98910.66;5076360;28;45367;-67
2022/08/26 02:56:40;;;;;;;;;6.40;4.80;;;;;25.08;49.34;98892.09;5076547;28;45743;-67
2022/08/26 02:59:05;;;;;;;;;2.00;2.00;;;;;25.05;49.90;98924.78;5075755;28;45365;-67
2022/08/26 03:01:33;;;;;;;;;8.50;6.00;;;;;25.02;49.92;98911.59;5077069;28;45499;-67
2022/08/26 03:04:00;;;;;;;;;6.00;6.00;;;;;25.01;50.52;98905.34;5076599;28;45369;-71
2022/08/26 03:06:26;;;;;;;;;6.50;6.00;;;;;24.97;50.78;98903.97;5075381;28;45684;-73
2022/08/26 03:08:52;;;;;;;;;6.20;6.20;;;;;24.94;51.57;98917.81;5075360;28;45503;-71
2022/08/26 03:11:18;;;;;;;;;6.50;6.00;;;;;24.89;51.23;98912.00;5076265;28;45159;-70
2022/08/26 03:13:44;;;;;;;;;7.00;7.00;;;;;24.86;51.53;98904.22;5076739;28;45340;-70
2022/08/26 03:16:10;;;;;;;;;7.20;5.40;;;;;24.85;51.42;98913.28;5076553;28;46584;-69
2022/08/26 03:18:35;;;;;;;;;8.00;7.75;;;;;24.84;52.06;98908.06;5076360;28;45328;-70
2022/08/26 03:21:10;;;;;;;;;3.00;3.00;;;;;24.86;52.04;98911.44;5076196;28;45266;-70
2022/08/26 03:23:37;;;;;;;;;7.50;7.50;;;;;24.82;51.70;98910.91;5076470;28;45285;-70
2022/08/26 03:26:04;;;;;;;;;7.40;6.00;;;;;24.78;52.18;98898.78;5072613;28;46331;-71
2022/08/26 03:28:30;;;;;;;;;7.80;7.20;;;;;24.77;52.82;98909.72;5076164;28;45375;-70
2022/08/26 03:30:56;;;;;;;;;5.50;5.50;;;;;24.74;52.94;98904.63;5076592;28;45548;-70
2022/08/26 03:33:23;;;;;;;;;8.25;7.25;;;;;24.71;52.68;98911.16;5074760;28;45479;-71
2022/08/26 03:35:50;;;;;;;;;5.25;5.25;;;;;24.68;52.99;98903.38;5075614;28;46332;-70
2022/08/26 03:38:15;;;;;;;;;9.60;9.40;;;;;24.64;53.17;98919.03;5075509;28;45436;-71
2022/08/26 03:40:42;;;;;;;;;8.75;8.75;;;;;24.63;53.29;98901.16;5076300;28;45298;-70
2022/08/26 03:43:08;;;;;;;;;7.00;7.00;;;;;24.62;52.94;98915.66;5075852;28;45322;-69
2022/08/26 03:45:35;;;;;;;;;6.25;5.50;;;;;24.66;53.44;98911.63;5075672;28;46252;-68
2022/08/26 03:48:01;;;;;;;;;5.60;5.60;;;;;24.58;53.67;98925.06;5075503;28;45448;-69
2022/08/26 03:50:27;;;;;;;;;3.60;3.60;;;;;24.54;53.95;98912.03;5075498;28;45230;-69
2022/08/26 03:52:54;;;;;;;;;5.50;5.25;;;;;24.48;53.98;98905.41;5076127;28;45365;-72
2022/08/26 03:55:23;;;;;;;;;7.50;7.50;;;;;24.49;54.09;98895.47;5072626;28;46561;-71
2022/08/26 03:57:48;;;;;;;;;7.00;7.00;;;;;24.44;53.76;98911.28;5075373;28;45527;-71
2022/08/26 04:00:15;;;;;;;;;5.00;5.00;;;;;24.39;54.17;98913.56;5072403;28;45500;-71
2022/08/26 04:02:44;;;;;;;;;7.00;7.00;;;;;24.33;54.12;98915.88;5075414;28;45470;-71
2022/08/26 04:05:13;;;;;;;;;6.60;6.60;;;;;24.29;54.25;98924.44;5075473;28;45548;-71
2022/08/26 04:07:41;;;;;;;;;7.40;7.40;;;;;24.25;54.63;98912.28;5075083;28;45409;-71
2022/08/26 04:10:08;;;;;;;;;4.60;3.60;;;;;24.25;54.50;98923.91;5068094;28;45377;-71
2022/08/26 04:12:36;;;;;;;;;6.00;5.80;;;;;24.21;54.52;98908.16;5075871;28;45229;-70
2022/08/26 04:15:04;;;;;;;;;9.00;6.75;;;;;24.21;54.82;98938.63;5050445;28;45745;-70
2022/08/26 04:17:29;;;;;;;;;7.20;6.60;;;;;24.19;54.52;98913.69;5075501;28;45440;-72
2022/08/26 04:19:54;;;;;;;;;5.75;4.75;;;;;24.18;54.76;98905.75;5075126;28;45424;-72
2022/08/26 04:22:20;;;;;;;;;6.00;6.00;;;;;24.16;54.55;98913.97;5074898;28;45485;-72
2022/08/26 04:24:45;;;;;;;;;4.00;3.25;;;;;24.13;54.70;98919.66;5056929;28;47140;-68
2022/08/26 04:27:11;;;;;;;;;8.75;7.00;;;;;24.11;55.01;98913.63;5075262;28;45434;-70
2022/08/26 04:29:40;;;;;;;;;8.25;7.00;;;;;24.09;55.49;98912.06;5072910;28;45480;-73
2022/08/26 04:32:07;;;;;;;;;6.50;6.50;;;;;24.08;55.04;98927.38;5075466;28;45441;-72
2022/08/26 04:34:34;;;;;;;;;6.60;5.00;;;;;24.09;55.09;98922.84;5073374;28;45465;-72
2022/08/26 04:36:59;;;;;;;;;6.00;6.00;;;;;24.08;55.46;98923.84;5074300;28;45559;-69
2022/08/26 04:39:24;;;;;;;;;5.75;5.75;;;;;24.06;54.98;98906.97;5074518;28;45467;-68
2022/08/26 04:41:50;;;;;;;;;6.75;6.00;;;;;24.05;54.89;98918.75;5075340;28;45453;-68
2022/08/26 04:44:16;;;;;;;;;9.00;8.50;;;;;24.06;55.57;98937.47;5074220;28;46186;-69
2022/08/26 04:46:42;;;;;;;;;7.40;7.00;;;;;24.06;55.80;98925.84;5074730;28;45393;-69
2022/08/26 04:49:08;;;;;;;;;6.50;6.50;;;;;24.05;55.84;98933.06;5074063;28;45968;-69
2022/08/26 04:51:35;;;;;;;;;8.25;7.25;;;;;24.04;56.08;98954.75;5074170;28;45373;-69
2022/08/26 04:54:01;;;;;;;;;7.60;6.80;;;;;24.01;55.80;98951.38;5075153;28;45449;-69
2022/08/26 04:56:29;;;;;;;;;5.80;5.80;;;;;24.00;55.74;98933.50;5075317;28;45506;-71
2022/08/26 04:58:55;;;;;;;;;5.75;5.75;;;;;23.99;55.21;98929.13;5054805;28;45452;-72
2022/08/26 05:01:21;;;;;;;;;6.25;5.00;;;;;23.97;56.11;98924.88;5075092;28;45342;-72
2022/08/26 05:03:47;;;;;;;;;6.00;6.00;;;;;23.96;56.05;98924.03;5074765;28;46335;-72
2022/08/26 05:06:13;;;;;;;;;4.50;4.50;;;;;23.97;56.81;98933.81;5074610;28;45405;-72
2022/08/26 05:08:38;;;;;;;;;6.75;6.75;;;;;23.95;55.60;98932.28;5074246;28;45366;-72
2022/08/26 05:11:05;;;;;;;;;8.00;8.00;;;;;23.96;56.58;98945.56;5074368;28;45306;-72
2022/08/26 05:13:30;;;;;;;;;8.00;7.50;;;;;23.95;56.46;98937.69;5052655;28;46037;-72
2022/08/26 05:15:55;;;;;;;;;7.00;7.00;;;;;23.94;56.48;98942.22;5071474;28;45532;-72
2022/08/26 05:18:24;;;;;;;;;6.25;5.25;;;;;23.94;56.27;98947.59;5074407;28;45462;-73
2022/08/26 05:20:52;;;;;;;;;8.00;7.75;;;;;23.91;56.50;98965.91;5073688;28;45367;-72
2022/08/26 05:23:18;;;;;;;;;7.40;7.40;;;;;23.93;56.38;98945.06;5074328;28;45702;-72
2022/08/26 05:25:46;;;;;;;;;8.00;8.00;;;;;23.95;56.39;98965.44;5074535;28;45332;-72
2022/08/26 05:28:13;;;;;;;;;6.25;6.25;;;;;23.97;56.39;98959.88;5074233;28;45378;-72
2022/08/26 05:30:39;;;;;;;;;3.75;3.75;;;;;23.98;56.19;98948.13;5073653;28;45496;-72
2022/08/26 05:33:05;;;;;;;;;8.00;8.00;;;;;23.97;56.44;98960.75;5073127;28;45520;-69
2022/08/26 05:35:32;;;;;;;;;7.00;6.60;;;;;23.94;56.02;98947.59;5073625;28;45421;-69
2022/08/26 05:38:00;;;;;;;;;8.50;8.50;;;;;23.92;57.41;98949.59;5073476;28;45461;-69
2022/08/26 05:40:27;;;;;;;;;7.75;6.25;;;;;23.89;56.79;98947.19;5073432;28;45543;-69
2022/08/26 05:42:53;;;;;;;;;6.40;6.40;;;;;23.89;56.20;98957.97;5073647;28;46511;-69
2022/08/26 05:45:22;;;;;;;;;7.50;7.50;;;;;23.88;56.24;98950.88;5073599;28;45494;-68
2022/08/26 05:47:49;;;;;;;;;5.75;3.00;;;;;23.92;56.43;98959.50;5072715;28;45473;-72
2022/08/26 05:50:14;;;;;;;;;9.00;6.25;;;;;23.93;56.98;98969.28;5071846;28;45458;-72
2022/08/26 05:52:40;;;;;;;;;6.00;6.00;;;;;23.93;56.97;98975.53;5073395;28;45554;-73
2022/08/26 05:55:05;;;;;;;;;6.00;6.00;;;;;23.94;57.07;98958.38;5073376;28;45371;-73
2022/08/26 05:57:31;;;;;;;;;6.75;6.00;;;;;23.96;57.27;98958.22;5074281;28;45460;-73
2022/08/26 05:59:56;;;;;;;;;6.50;6.50;;;;;23.95;56.52;98967.28;5073808;28;45314;-73
2022/08/26 06:02:22;;;;;;;;;7.00;7.00;;;;;23.94;56.74;98976.38;5073828;28;46374;-73
2022/08/26 06:04:48;;;;;;;;;6.75;6.75;;;;;23.98;57.37;98986.66;5073298;28;45376;-73
2022/08/26 06:07:15;;;;;;;;;6.25;3.25;;;;;24.01;57.29;98985.53;5055749;28;45509;-74
2022/08/26 06:09:41;;;;;;;;;5.00;5.00;;;;;24.04;57.17;98966.38;5073785;28;45507;-72
2022/08/26 06:12:07;;;;;;;;;6.00;6.00;;;;;24.04;57.38;98995.16;5077252;28;46165;-74
2022/08/26 06:14:32;;;;;;;;;8.50;6.50;;;;;24.06;57.00;98990.47;5075303;28;45567;-72
2022/08/26 06:16:59;;;;;;;;;5.00;5.00;;;;;24.05;57.47;98986.94;5076805;28;45478;-67
2022/08/26 06:19:24;;;;;;;;;7.00;7.00;;;;;24.07;57.09;99001.09;5076147;28;45564;-67
2022/08/26 06:21:50;;;;;;;;;8.00;7.00;;;;;24.07;57.58;99006.50;5075747;28;45376;-67
2022/08/26 06:27:03;;;;;;;;;6.00;6.00;;;;;24.06;57.44;98996.72;5076235;28;45487;-77
2022/08/26 06:29:34;;;;;;;;;5.75;5.75;;;;;24.01;57.63;99010.63;5075614;28;45599;-56
2022/08/26 06:32:00;;;;;;;;;7.40;7.40;;;;;23.97;58.16;99006.53;5075252;28;45768;-57
2022/08/26 06:34:29;;;;;;;;;8.00;8.00;;;;;23.95;58.25;99010.38;5075244;28;45314;-56
2022/08/26 06:36:57;;;;;;;;;8.00;8.00;;;;;23.91;58.30;99007.13;5075654;28;45552;-51
2022/08/26 06:39:22;;;;;;;;;6.00;4.00;;;;;23.87;58.20;99024.56;5075773;28;45526;-56
2022/08/26 06:41:48;;;;;;;;;6.75;5.00;;;;;23.85;58.23;99001.47;5075919;28;46446;-58
2022/08/26 06:44:14;;;;;;;;;5.00;4.50;;;;;23.83;58.86;99016.94;5075147;28;45371;-60
2022/08/26 06:46:41;;;;;;;;;6.60;6.20;;;;;23.85;58.96;99021.19;5075530;28;45386;-57
2022/08/26 06:49:07;;;;;;;;;6.50;6.50;;;;;23.85;58.94;99018.50;5075476;28;45416;-58
2022/08/26 06:51:35;;;;;;;;;7.75;7.25;;;;;23.86;58.80;99009.41;5075446;28;45951;-57
2022/08/26 06:54:02;;;;;;;;;7.00;7.00;;;;;23.85;58.75;99015.78;5075533;28;45647;-57
2022/08/26 06:56:36;;;;;;;;;7.80;6.80;;;;;23.86;58.56;99011.25;5076138;28;45439;-53
2022/08/26 06:59:02;;;;;;;;;8.00;8.00;;;;;23.85;58.65;99018.50;5073189;28;45337;-58
2022/08/26 07:01:31;;;;;;;;;8.20;7.80;;;;;23.83;59.02;99015.09;5075513;28;47155;-53
2022/08/26 07:03:59;;;;;;;;;8.40;7.80;;;;;23.83;59.26;99019.63;5075107;28;45285;-59
2022/08/26 07:06:26;;;;;;;;;7.20;7.00;;;;;23.84;58.73;99010.56;5075620;28;45436;-57
2022/08/26 07:08:58;;;;;;;;;7.25;7.25;;;;;23.86;59.26;99017.50;5049249;28;45565;-56
2022/08/26 07:11:24;;;;;;;;;9.25;6.50;;;;;23.86;58.91;99022.88;5074388;28;46249;-56
2022/08/26 07:13:49;;;;;;;;;9.75;8.00;;;;;23.88;59.07;99025.44;5074356;28;45503;-56
2022/08/26 07:16:16;;;;;;;;;8.75;8.00;;;;;23.88;59.46;99014.66;5075692;28;45445;-56
2022/08/26 07:18:42;;;;;;;;;7.50;6.75;;;;;23.90;58.74;99028.81;5075256;28;45519;-56
2022/08/26 07:21:11;;;;;;;;;9.00;7.75;;;;;23.89;58.71;99021.75;5073674;28;46427;-56
2022/08/26 07:23:38;;;;;;;;;7.00;7.00;;;;;23.93;59.39;99020.47;5073849;28;45487;-56
2022/08/26 07:26:16;;;;;;;;;5.80;5.80;;;;;23.98;59.38;99026.22;5074986;28;45410;-56
2022/08/26 07:28:44;;;;;;;;;6.00;6.00;;;;;24.01;58.73;99029.47;5074127;28;45452;-59
2022/08/26 07:31:12;;;;;;;;;8.25;8.25;;;;;24.05;58.67;99043.50;5055520;28;45511;-56
2022/08/26 07:33:39;;;;;;;;;9.60;9.60;;;;;24.11;58.38;99020.50;5074233;28;45467;-57
2022/08/26 07:36:07;;;;;;;;;10.00;8.25;;;;;24.18;58.33;99010.81;5074484;28;45520;-56
2022/08/26 07:38:34;;;;;;;;;7.00;7.00;;;;;24.23;58.33;99006.72;5074550;28;45381;-57
2022/08/26 07:41:00;;;;;;;;;5.20;5.20;;;;;24.28;58.11;99025.97;5075710;28;45560;-57
2022/08/26 07:43:27;;;;;;;;;5.20;5.20;;;;;24.30;57.94;99015.88;5073984;28;45403;-61
2022/08/26 07:45:52;;;;;;;;;6.00;6.00;;;;;24.31;57.74;99014.88;5069303;28;45620;-55
2022/08/26 07:48:18;;;;;;;;;10.25;7.25;;;;;24.30;58.47;99009.63;5072470;28;45534;-57
2022/08/26 07:50:44;;;;;;;;;9.00;7.50;;;;;24.30;58.22;99023.97;5073404;28;47461;-56
2022/08/26 07:53:11;;;;;;;;;8.20;8.20;;;;;24.25;58.60;99017.34;5073007;28;45559;-56
2022/08/26 07:55:37;;;;;;;;;11.00;9.40;;;;;24.24;58.98;99021.03;5074405;28;45650;-56
2022/08/26 07:58:04;;;;;;;;;6.50;6.50;;;;;24.20;58.44;99009.66;5074129;28;45219;-57
2022/08/26 08:00:31;;;;;;;;;8.50;8.50;;;;;24.18;59.18;99022.44;5072507;28;45699;-56
2022/08/26 08:02:58;;;;;;;;;11.20;10.20;;;;;24.16;58.99;99015.50;5072436;28;45434;-57
2022/08/26 08:05:24;;;;;;;;;5.20;5.20;;;;;24.16;58.80;99016.34;5045391;28;45528;-59
2022/08/26 08:07:50;;;;;;;;;8.00;8.00;;;;;24.17;59.28;99017.19;5072669;28;45457;-57
2022/08/26 08:10:19;;;;;;;;;7.50;7.50;;;;;24.17;59.23;98999.19;5074221;28;46383;-57
2022/08/26 08:12:46;;;;;;;;;8.00;7.60;;;;;24.18;58.56;98995.50;5073999;28;45631;-58
2022/08/26 08:15:12;;;;;;;;;11.00;10.75;;;;;24.21;58.84;99003.28;5074375;28;45368;-59
2022/08/26 08:17:39;;;;;;;;;9.00;8.50;;;;;24.23;58.98;99013.91;5056645;28;45618;-59
2022/08/26 08:20:06;;;;;;;;;10.50;8.75;;;;;24.27;58.87;99009.97;5073626;28;46503;-59
2022/08/26 08:22:32;;;;;;;;;8.00;8.00;;;;;24.33;58.33;98998.56;5073846;28;45381;-59
2022/08/26 08:24:57;;;;;;;;;8.50;8.50;;;;;24.46;58.34;98992.81;5067356;28;45385;-59
2022/08/26 08:27:24;;;;;;;;;10.50;9.00;;;;;24.60;58.15;98998.53;5074425;28;45405;-59
2022/08/26 08:29:53;;;;;;;;;10.00;8.75;;;;;24.75;57.52;98998.00;5074003;28;46222;-60
2022/08/26 08:32:18;;;;;;;;;8.00;8.00;;;;;24.89;57.22;99019.03;5072882;28;45637;-59
2022/08/26 08:34:44;;;;;;;;;11.25;8.75;;;;;24.99;56.91;98999.06;5073786;28;45490;-58
2022/08/26 08:37:09;;;;;;;;;9.50;9.00;;;;;25.10;56.44;98994.47;5073875;28;45515;-61
2022/08/26 08:39:35;;;;;;;;;10.00;9.00;;;;;25.20;56.65;98998.75;5073520;28;45467;-58
2022/08/26 08:42:18;;;;;;;;;9.50;8.50;;;;;25.29;56.00;99002.38;5073833;28;45369;-58
2022/08/26 08:44:47;;;;;;;;;9.00;7.00;;;;;25.37;55.76;98983.50;5073641;28;45476;-57
2022/08/26 08:47:36;;;;;;;;;9.00;9.00;;;;;25.48;55.57;99002.13;5074393;28;45401;-56
2022/08/26 08:50:20;;;;;;;;;10.25;10.25;;;;;25.53;55.13;98996.28;5073034;28;45738;-57
2022/08/26 08:52:58;;;;;;;;;9.00;9.00;;;;;25.54;55.60;98988.00;5074202;28;45382;-57
2022/08/26 08:55:29;;;;;;;;;9.80;8.40;;;;;25.58;54.92;98997.50;5074194;28;45568;-57
2022/08/26 08:58:04;;;;;;;;;10.25;10.00;;;;;25.62;55.06;98998.06;5073895;28;45409;-56
2022/08/26 09:00:41;;;;;;;;;9.80;9.80;;;;;25.67;55.01;99001.09;5072185;28;46256;-57
2022/08/26 09:03:22;;;;;;;;;8.80;8.80;;;;;25.70;54.53;99000.78;5073727;28;45370;-58
2022/08/26 09:05:51;;;;;;;;;9.00;9.00;;;;;25.74;54.30;99002.16;5072494;28;45398;-55
2022/08/26 09:08:23;;;;;;;;;8.00;7.75;;;;;25.77;54.26;99006.41;5073023;28;45478;-58
2022/08/26 09:10:59;;;;;;;;;10.75;10.75;;;;;25.77;54.38;99001.00;5073443;28;46141;-57
2022/08/26 09:13:26;;;;;;;;;11.00;11.00;;;;;25.77;54.38;99007.25;5073552;28;45338;-58
2022/08/26 09:16:17;;;;;;;;;10.00;10.00;;;;;25.77;54.41;99004.56;5073758;28;45355;-58
2022/08/26 09:18:55;;;;;;;;;7.75;7.00;;;;;25.82;54.63;99004.91;5072833;28;45447;-58
2022/08/26 09:21:22;;;;;;;;;10.20;10.00;;;;;25.88;54.68;99006.13;5072788;28;45421;-58
2022/08/26 09:23:49;;;;;;;;;8.40;8.40;;;;;25.93;54.34;99012.75;5072443;28;45731;-59
2022/08/26 09:26:26;;;;;;;;;5.80;5.80;;;;;25.96;54.34;99004.31;5074056;28;45392;-58
2022/08/26 09:29:00;;;;;;;;;8.50;8.50;;;;;26.02;53.89;98994.69;5073299;28;45464;-58
2022/08/26 09:31:26;;;;;;;;;10.50;10.50;;;;;26.14;53.40;98992.56;5073649;28;46642;-59
2022/08/26 09:34:26;;;;;;;;;8.80;7.80;;;;;26.15;53.43;98992.38;5072653;28;45480;-73
2022/08/26 09:36:54;;;;;;;;;9.75;7.75;;;;;26.13;53.38;98982.78;4971159;28;45419;-69
2022/08/26 09:39:22;;;;;;;;;12.50;11.50;;;;;26.16;53.92;98999.47;5052945;28;45560;-69
2022/08/26 09:42:07;;;;;;;;;9.75;9.75;;;;;26.21;54.01;99005.25;5073956;28;45757;-69
2022/08/26 09:44:34;;;;;;;;;8.40;8.20;;;;;26.24;53.64;98979.75;5073495;28;45476;-65
2022/08/26 09:47:07;;;;;;;;;12.50;10.75;;;;;26.26;53.13;98989.41;5076980;28;46274;-65
2022/08/26 09:49:33;;;;;;;;;9.25;9.25;;;;;26.26;53.26;98978.59;5076869;28;45471;-67
2022/08/26 09:52:04;;;;;;;;;7.75;7.25;;;;;26.27;53.14;98993.78;5076413;28;45966;-67
2022/08/26 09:54:30;;;;;;;;;6.80;6.80;;;;;26.28;53.19;98995.50;5077096;28;45350;-68
2022/08/26 09:57:15;;;;;;;;;14.75;12.00;;;;;26.29;53.00;98989.09;5058938;28;45424;-64
2022/08/26 09:59:41;;;;;;;;;10.25;10.25;;;;;26.28;53.17;99005.44;5076646;28;45556;-68
2022/08/26 10:02:32;;;;;;;;;8.80;8.80;;;;;26.24;53.47;98972.50;5076977;28;45475;-64
2022/08/26 10:05:01;;;;;;;;;9.40;9.40;;;;;26.25;53.04;98985.00;5053916;28;45393;-73
2022/08/26 10:07:39;;;;;;;;;9.00;8.60;;;;;26.27;52.96;98979.44;5077014;28;45453;-68
2022/08/26 10:10:08;;;;;;;;;9.20;8.60;;;;;26.26;53.20;98975.88;5076441;28;45302;-70
2022/08/26 10:12:41;;;;;;;;;8.20;8.20;;;;;26.30;52.55;98987.25;5076642;28;46136;-70
2022/08/26 10:15:09;;;;;;;;;11.40;9.80;;;;;26.31;52.70;98978.13;5076060;28;45455;-70
2022/08/26 10:17:45;;;;;;;;;10.80;10.40;;;;;26.31;52.72;99003.28;5072935;28;45393;-58
2022/08/26 10:20:16;;;;;;;;;12.50;10.75;;;;;26.37;52.76;98972.03;5076142;28;45404;-58
2022/08/26 10:22:54;;;;;;;;;11.60;10.80;;;;;26.38;52.57;98982.69;5074400;28;45582;-58
2022/08/26 10:25:25;;;;;;;;;11.00;10.00;;;;;26.43;52.74;98990.31;5075838;28;45448;-58
2022/08/26 10:28:02;;;;;;;;;10.25;10.00;;;;;26.45;52.56;98958.56;5062908;28;45362;-58
2022/08/26 10:30:38;;;;;;;;;8.25;8.25;;;;;26.45;52.42;98957.72;5052423;28;45533;-58
2022/08/26 10:33:08;;;;;;;;;10.50;9.00;;;;;26.45;52.50;98955.00;5071717;28;45460;-58
2022/08/26 10:35:39;;;;;;;;;10.00;10.00;;;;;26.50;52.19;98977.81;5075796;28;45559;-58
2022/08/26 10:38:13;;;;;;;;;8.80;8.80;;;;;26.48;52.29;98985.25;5075842;28;45498;-58
2022/08/26 10:40:41;;;;;;;;;11.25;10.00;;;;;26.46;51.93;98964.81;5075660;28;45532;-57
2022/08/26 10:43:21;;;;;;;;;6.60;6.60;;;;;26.49;52.45;98950.94;5075899;28;45461;-58
2022/08/26 10:45:50;;;;;;;;;9.40;9.40;;;;;26.55;52.03;98967.34;5075779;28;45420;-58
2022/08/26 10:48:26;;;;;;;;;10.00;9.50;;;;;26.58;51.91;98963.47;5075927;28;45448;-58
2022/08/26 10:50:54;;;;;;;;;12.25;11.50;;;;;26.62;51.83;98946.75;5075219;28;45429;-58
2022/08/26 10:53:38;;;;;;;;;8.00;8.00;;;;;26.64;52.06;98944.72;5072594;28;45512;-58
2022/08/26 10:56:06;;;;;;;;;6.60;6.60;;;;;26.69;51.79;98945.06;5071428;27;45436;-57
2022/08/26 10:58:55;;;;;;;;;7.40;7.40;;;;;26.75;51.58;98947.09;5074368;28;45530;-58
2022/08/26 11:01:48;;;;;;;;;9.00;9.00;;;;;26.78;51.45;98935.09;5071032;28;45362;-58
2022/08/26 11:04:31;;;;;;;;;10.75;10.75;;;;;26.79;51.05;98942.19;5074197;28;46134;-58
2022/08/26 11:07:35;;;;;;;;;6.00;6.00;;;;;26.81;51.12;98936.63;5074211;28;45525;-58
2022/08/26 11:10:08;;;;;;;;;5.50;5.00;;;;;26.83;51.10;98965.16;5072305;28;45587;-58
2022/08/26 11:12:33;;;;;;;;;10.00;10.00;;;;;26.83;51.05;98951.66;5073890;28;45477;-69
2022/08/26 11:14:59;;;;;;;;;8.25;7.00;;;;;26.82;51.39;98958.06;5074629;28;46647;-69
2022/08/26 11:17:43;;;;;;;;;6.75;6.75;;;;;26.85;51.19;98933.38;5075933;28;45369;-70
2022/08/26 11:20:10;;;;;;;;;13.40;12.00;;;;;26.86;51.25;98948.59;5076078;27;45416;-69
2022/08/26 11:22:37;;;;;;;;;6.00;6.00;;;;;26.81;51.19;98945.59;5074816;28;45369;-69
2022/08/26 11:25:16;;;;;;;;;8.25;8.25;;;;;26.77;50.99;98942.38;5074340;28;45733;-69
2022/08/26 11:27:49;;;;;;;;;8.00;7.40;;;;;26.73;50.93;98954.53;5075640;28;45460;-70
2022/08/26 11:30:14;;;;;;;;;9.00;8.50;;;;;26.68;50.98;98973.09;5074847;28;45389;-70
2022/08/26 11:32:40;;;;;;;;;11.00;10.00;;;;;26.61;51.27;98934.25;5076306;28;45511;-69
2022/08/26 11:35:33;;;;;;;;;12.75;12.75;;;;;26.59;50.61;98947.09;5074727;28;46116;-69
2022/08/26 11:38:12;;;;;;;;;11.20;10.40;;;;;26.53;50.29;98950.44;5069186;28;45482;-58
2022/08/26 11:40:38;;;;;;;;;12.50;10.50;;;;;26.45;50.21;98939.63;5075217;28;45585;-58
2022/08/26 11:43:09;;;;;;;;;11.00;10.50;;;;;26.44;49.69;98928.97;5074348;28;45367;-58